Time;durP1;ratioP1;P1;durP2;ratioP2;P2;SDS_P1;SDS_P2;PMS_P1;PMS_P2;Temp;Humidity;BMP_temperature;BMP_pressure;BME280_temperature;BME280_humidity;BME280_pressure;Samples;Min_cycle;Max_cycle;Signal;HPM_P1;HPM_P2
2022/10/03 00:00:27;;;;;;;23.13;16.00;;;;;;;;;;4978549;28;20052;-69
2022/10/03 00:03:33;;;;;;;22.15;15.95;;;;;;;;;;4984974;28;20069;-68
2022/10/03 00:06:25;;;;;;;19.92;14.88;;;;;;;;;;4984697;28;20062;-68
2022/10/03 00:09:17;;;;;;;19.08;14.80;;;;;;;;;;4980974;28;20105;-68
2022/10/03 00:12:25;;;;;;;19.10;14.65;;;;;;;;;;4968600;28;20054;-68
2022/10/03 00:15:15;;;;;;;18.80;15.63;;;;;;;;;;4984002;28;20054;-68
2022/10/03 00:18:14;;;;;;;19.65;14.98;;;;;;;;;;4985010;28;20038;-69
2022/10/03 00:21:04;;;;;;;18.25;14.15;;;;;;;;;;4980537;28;20046;-68
2022/10/03 00:23:36;;;;;;;20.30;14.55;;;;;;;;;;4983264;28;20042;-68
2022/10/03 00:26:27;;;;;;;18.23;13.15;;;;;;;;;;4985163;28;20043;-68
2022/10/03 00:28:57;;;;;;;17.90;13.93;;;;;;;;;;4986079;28;20046;-68
2022/10/03 00:31:31;;;;;;;22.75;15.95;;;;;;;;;;4983046;28;20465;-68
2022/10/03 00:34:23;;;;;;;19.83;15.00;;;;;;;;;;4964818;28;20093;-68
2022/10/03 00:37:22;;;;;;;22.48;15.20;;;;;;;;;;4966949;28;20055;-69
2022/10/03 00:40:27;;;;;;;18.73;14.00;;;;;;;;;;4981622;28;20046;-69
2022/10/03 00:43:15;;;;;;;18.95;13.52;;;;;;;;;;4954356;28;20050;-69
2022/10/03 00:46:03;;;;;;;23.83;15.52;;;;;;;;;;4984323;28;20063;-69
2022/10/03 00:48:44;;;;;;;21.40;14.60;;;;;;;;;;4983378;28;20051;-69
2022/10/03 00:51:24;;;;;;;23.45;14.80;;;;;;;;;;4980977;28;20046;-69
2022/10/03 00:54:03;;;;;;;20.48;14.05;;;;;;;;;;4985283;28;20054;-69
2022/10/03 00:56:34;;;;;;;24.45;14.48;;;;;;;;;;4981624;28;20096;-69
2022/10/03 00:59:22;;;;;;;20.55;14.60;;;;;;;;;;4984115;28;20055;-69
2022/10/03 01:01:49;;;;;;;20.75;15.27;;;;;;;;;;4985580;28;20046;-69
2022/10/03 01:04:38;;;;;;;25.35;14.48;;;;;;;;;;4982685;28;20047;-69
2022/10/03 01:07:19;;;;;;;20.10;14.43;;;;;;;;;;4982566;28;20050;-69
2022/10/03 01:10:13;;;;;;;23.05;14.93;;;;;;;;;;4986343;28;20514;-69
2022/10/03 01:13:18;;;;;;;20.15;14.10;;;;;;;;;;4969602;28;20477;-69
2022/10/03 01:15:54;;;;;;;19.92;13.65;;;;;;;;;;4962250;28;20042;-69
2022/10/03 01:18:27;;;;;;;18.50;13.55;;;;;;;;;;4984020;28;20061;-69
2022/10/03 01:21:33;;;;;;;21.77;14.45;;;;;;;;;;4981567;28;20506;-69
2022/10/03 01:24:13;;;;;;;20.92;13.48;;;;;;;;;;4978745;28;20050;-69
2022/10/03 01:26:51;;;;;;;20.77;14.40;;;;;;;;;;4982816;28;20043;-69
2022/10/03 01:32:28;;;;;;;22.45;14.98;;;;;;;;;;4981973;28;20137;-69
2022/10/03 01:35:13;;;;;;;21.95;14.82;;;;;;;;;;4982471;28;20805;-69
2022/10/03 01:37:44;;;;;;;21.05;14.57;;;;;;;;;;4983886;28;20141;-69
2022/10/03 01:40:30;;;;;;;20.17;14.27;;;;;;;;;;4985889;28;20116;-69
2022/10/03 01:43:21;;;;;;;23.45;15.13;;;;;;;;;;4966455;28;20082;-69
2022/10/03 01:46:16;;;;;;;23.10;14.80;;;;;;;;;;4977004;28;20120;-69
2022/10/03 01:48:46;;;;;;;24.92;16.33;;;;;;;;;;4979026;28;20145;-69
2022/10/03 01:51:33;;;;;;;22.00;15.52;;;;;;;;;;4995002;28;20051;-68
2022/10/03 01:54:15;;;;;;;27.58;16.10;;;;;;;;;;4994888;28;20054;-69
2022/10/03 01:56:54;;;;;;;20.67;15.07;;;;;;;;;;4978186;28;20050;-69
2022/10/03 01:59:31;;;;;;;23.38;15.80;;;;;;;;;;4994760;28;20133;-69
2022/10/03 02:02:29;;;;;;;27.98;17.13;;;;;;;;;;4994695;28;20525;-69
2022/10/03 02:05:05;;;;;;;29.65;16.60;;;;;;;;;;4978569;28;20085;-68
2022/10/03 02:07:51;;;;;;;25.67;17.13;;;;;;;;;;4995050;28;20133;-68
2022/10/03 02:10:25;;;;;;;20.92;15.82;;;;;;;;;;4979047;28;20136;-69
2022/10/03 02:13:07;;;;;;;26.98;16.50;;;;;;;;;;4994830;28;20457;-69
2022/10/03 02:15:47;;;;;;;24.67;16.65;;;;;;;;;;4994894;28;20054;-68
2022/10/03 02:18:20;;;;;;;21.50;15.52;;;;;;;;;;4977299;28;20050;-69
2022/10/03 02:20:53;;;;;;;19.67;15.05;;;;;;;;;;4977202;28;20050;-68
2022/10/03 02:23:31;;;;;;;23.20;15.90;;;;;;;;;;4961504;28;20109;-69
2022/10/03 02:26:37;;;;;;;21.95;15.00;;;;;;;;;;4994587;28;20478;-69
2022/10/03 02:29:28;;;;;;;22.92;15.45;;;;;;;;;;4994182;28;20105;-69
2022/10/03 02:32:31;;;;;;;20.58;13.98;;;;;;;;;;4994546;28;20387;-69
2022/10/03 02:35:06;;;;;;;;;;;;;;;;;;4994590;28;20638;-68
2022/10/03 02:37:45;;;;;;;21.38;15.70;;;;;;;;;;4993996;28;20355;-69
2022/10/03 02:40:40;;;;;;;23.15;14.57;;;;;;;;;;4994229;28;20061;-68
2022/10/03 02:43:42;;;;;;;22.05;15.15;;;;;;;;;;4962118;28;20484;-69
2022/10/03 02:46:32;;;;;;;25.25;15.00;;;;;;;;;;4994516;28;20073;-69
2022/10/03 02:49:21;;;;;;;24.90;15.77;;;;;;;;;;4994081;28;20486;-68
2022/10/03 02:52:08;;;;;;;24.02;15.88;;;;;;;;;;4994069;28;20065;-68
2022/10/03 02:55:04;;;;;;;25.52;15.80;;;;;;;;;;4978333;28;20085;-68
2022/10/03 02:57:33;;;;;;;24.70;15.43;;;;;;;;;;4994027;28;20085;-69
2022/10/03 03:00:15;;;;;;;22.80;14.63;;;;;;;;;;4993764;28;20051;-68
2022/10/03 03:03:00;;;;;;;24.85;15.10;;;;;;;;;;4997791;28;20057;-68
2022/10/03 03:05:54;;;;;;;30.75;15.55;;;;;;;;;;5000764;28;20050;-68
2022/10/03 03:08:43;;;;;;;23.52;15.25;;;;;;;;;;5001629;28;20082;-68
2022/10/03 03:11:36;;;;;;;20.70;13.82;;;;;;;;;;4999269;28;20112;-68
2022/10/03 03:14:31;;;;;;;22.52;15.38;;;;;;;;;;4999803;28;20465;-68
2022/10/03 03:16:58;;;;;;;23.52;14.18;;;;;;;;;;4974367;28;20481;-67
2022/10/03 03:19:49;;;;;;;20.45;14.30;;;;;;;;;;4973891;28;20112;-69
2022/10/03 03:22:55;;;;;;;21.35;14.70;;;;;;;;;;4981617;28;20125;-68
2022/10/03 03:25:45;;;;;;;26.35;14.93;;;;;;;;;;4993393;28;20522;-68
2022/10/03 03:28:21;;;;;;;21.20;14.82;;;;;;;;;;4962033;28;20085;-68
2022/10/03 03:31:06;;;;;;;21.10;14.00;;;;;;;;;;4976389;28;20054;-68
2022/10/03 03:33:51;;;;;;;20.02;13.07;;;;;;;;;;4993005;28;20050;-68
2022/10/03 03:37:05;;;;;;;24.20;15.25;;;;;;;;;;4993401;28;20085;-68
2022/10/03 03:39:31;;;;;;;21.27;13.88;;;;;;;;;;4978443;28;20046;-68
2022/10/03 03:42:21;;;;;;;20.30;14.05;;;;;;;;;;4993021;28;20054;-68
2022/10/03 03:45:06;;;;;;;18.35;12.85;;;;;;;;;;4982512;28;20042;-68
2022/10/03 03:47:48;;;;;;;19.50;13.35;;;;;;;;;;4993019;28;20501;-68
2022/10/03 03:50:36;;;;;;;20.63;13.63;;;;;;;;;;4992758;28;20481;-68
2022/10/03 03:53:15;;;;;;;19.38;13.45;;;;;;;;;;4960863;28;20088;-69
2022/10/03 03:56:26;;;;;;;22.42;13.40;;;;;;;;;;4975574;28;20088;-68
2022/10/03 03:59:15;;;;;;;20.83;13.57;;;;;;;;;;4969730;28;20054;-68
2022/10/03 04:01:48;;;;;;;19.70;12.95;;;;;;;;;;4960635;28;20061;-68
2022/10/03 04:04:33;;;;;;;19.88;14.25;;;;;;;;;;4992481;28;20133;-68
2022/10/03 04:07:28;;;;;;;18.50;13.40;;;;;;;;;;4961038;28;20112;-68
2022/10/03 04:10:22;;;;;;;19.90;13.13;;;;;;;;;;4992319;28;20081;-68
2022/10/03 04:13:19;;;;;;;19.58;13.68;;;;;;;;;;4992592;28;20046;-68
2022/10/03 04:16:06;;;;;;;22.73;13.80;;;;;;;;;;4991658;28;20101;-68
2022/10/03 04:18:58;;;;;;;19.20;13.52;;;;;;;;;;4986290;28;20498;-68
2022/10/03 04:21:49;;;;;;;21.70;13.65;;;;;;;;;;4990522;28;20050;-68
2022/10/03 04:24:28;;;;;;;24.80;14.43;;;;;;;;;;4973165;28;20089;-68
2022/10/03 04:27:12;;;;;;;23.40;14.40;;;;;;;;;;4977311;28;20056;-68
2022/10/03 04:29:52;;;;;;;20.88;14.63;;;;;;;;;;5001487;28;20502;-68
2022/10/03 04:33:14;;;;;;;22.42;14.38;;;;;;;;;;4996858;28;20110;-68
2022/10/03 04:35:59;;;;;;;26.27;15.73;;;;;;;;;;4940125;29;20107;-69
2022/10/03 04:38:47;;;;;;;23.25;15.18;;;;;;;;;;4932478;29;20139;-68
2022/10/03 04:41:49;;;;;;;21.90;13.93;;;;;;;;;;4982622;28;20054;-68
2022/10/03 04:44:29;;;;;;;23.02;14.55;;;;;;;;;;4975324;28;20191;-68
2022/10/03 04:47:01;;;;;;;24.42;14.45;;;;;;;;;;4990999;28;20047;-68
2022/10/03 04:49:43;;;;;;;26.88;15.15;;;;;;;;;;4973754;28;20082;-69
2022/10/03 04:52:23;;;;;;;27.98;15.48;;;;;;;;;;4959185;28;20592;-68
2022/10/03 04:54:59;;;;;;;25.83;14.40;;;;;;;;;;4975731;28;20053;-68
2022/10/03 04:57:30;;;;;;;22.50;14.80;;;;;;;;;;4973821;28;20086;-68
2022/10/03 05:00:07;;;;;;;23.60;14.18;;;;;;;;;;4974990;28;20077;-69
2022/10/03 05:02:43;;;;;;;23.48;15.25;;;;;;;;;;4955918;28;20051;-69
2022/10/03 05:06:05;;;;;;;21.88;14.07;;;;;;;;;;4962560;28;20125;-68
2022/10/03 05:08:40;;;;;;;21.73;14.23;;;;;;;;;;4886184;29;20058;-68
2022/10/03 05:11:32;;;;;;;20.02;13.88;;;;;;;;;;4894153;29;20156;-68
2022/10/03 05:14:30;;;;;;;22.58;13.40;;;;;;;;;;4963187;28;20082;-68
2022/10/03 05:16:57;;;;;;;18.80;12.88;;;;;;;;;;4975185;28;20133;-68
2022/10/03 05:19:52;;;;;;;21.98;13.75;;;;;;;;;;4995624;28;20108;-69
2022/10/03 05:22:30;;;;;;;23.17;13.50;;;;;;;;;;4974350;28;20055;-68
2022/10/03 05:25:19;;;;;;;24.58;13.30;;;;;;;;;;4974049;28;20425;-68
2022/10/03 05:28:44;;;;;;;22.90;13.98;;;;;;;;;;4989683;28;20469;-68
2022/10/03 05:31:28;;;;;;;19.85;14.52;;;;;;;;;;4952825;29;20134;-68
2022/10/03 05:34:21;;;;;;;26.73;14.60;;;;;;;;;;4926512;29;20103;-68
2022/10/03 05:37:06;;;;;;;24.35;14.35;;;;;;;;;;4947255;28;20062;-68
2022/10/03 05:39:43;;;;;;;21.92;14.35;;;;;;;;;;4975896;28;20091;-68
2022/10/03 05:42:38;;;;;;;26.10;16.02;;;;;;;;;;4978680;28;20529;-68
2022/10/03 05:45:20;;;;;;;24.65;15.43;;;;;;;;;;4994278;28;20418;-68
2022/10/03 05:47:51;;;;;;;24.27;16.48;;;;;;;;;;4994196;28;20101;-68
2022/10/03 05:50:40;;;;;;;28.52;16.27;;;;;;;;;;4978212;28;20050;-68
2022/10/03 05:53:26;;;;;;;30.00;16.98;;;;;;;;;;4995142;28;20100;-68
2022/10/03 05:56:08;;;;;;;31.25;19.05;;;;;;;;;;4980373;28;20562;-68
2022/10/03 05:58:46;;;;;;;32.95;17.08;;;;;;;;;;4962782;28;20497;-68
2022/10/03 06:01:31;;;;;;;28.98;17.95;;;;;;;;;;5000199;28;20113;-69
2022/10/03 06:04:21;;;;;;;28.48;17.73;;;;;;;;;;5019810;28;20065;-69
2022/10/03 06:07:22;;;;;;;28.48;18.55;;;;;;;;;;5004807;28;20041;-69
2022/10/03 06:10:13;;;;;;;31.30;18.67;;;;;;;;;;5005500;28;20034;-69
2022/10/03 06:12:53;;;;;;;32.97;17.25;;;;;;;;;;5005294;28;20035;-69
2022/10/03 06:15:28;;;;;;;29.52;17.77;;;;;;;;;;4988500;28;20035;-69
2022/10/03 06:17:57;;;;;;;31.10;17.52;;;;;;;;;;4977275;28;20137;-68
2022/10/03 06:21:02;;;;;;;31.05;20.15;;;;;;;;;;4977347;28;20088;-68
2022/10/03 06:23:35;;;;;;;32.03;18.60;;;;;;;;;;4963672;28;20046;-68
2022/10/03 06:26:23;;;;;;;23.58;17.15;;;;;;;;;;4994853;28;20141;-66
2022/10/03 06:29:30;;;;;;;27.90;17.70;;;;;;;;;;4991080;28;20125;-66
2022/10/03 06:32:34;;;;;;;26.23;15.65;;;;;;;;;;4963432;28;20058;-67
2022/10/03 06:35:20;;;;;;;;;;;;;;;;;;4992745;28;20370;-66
2022/10/03 06:38:05;;;;;;;27.52;16.90;;;;;;;;;;4992618;28;20012;-66
2022/10/03 06:41:10;;;;;;;23.90;16.38;;;;;;;;;;4991937;28;20521;-67
2022/10/03 06:43:44;;;;;;;22.27;15.27;;;;;;;;;;4988063;28;20090;-66
2022/10/03 06:46:48;;;;;;;23.88;16.40;;;;;;;;;;4975301;28;20052;-66
2022/10/03 06:49:32;;;;;;;20.50;15.73;;;;;;;;;;4991986;28;20069;-66
2022/10/03 06:52:20;;;;;;;20.20;14.55;;;;;;;;;;4975477;28;20054;-66
2022/10/03 06:55:03;;;;;;;19.58;13.38;;;;;;;;;;4991812;28;20081;-67
2022/10/03 06:57:45;;;;;;;21.35;14.00;;;;;;;;;;4992264;28;20255;-66
2022/10/03 07:00:14;;;;;;;20.55;14.18;;;;;;;;;;4974779;28;20478;-67
2022/10/03 07:02:59;;;;;;;19.20;13.30;;;;;;;;;;4992149;28;20046;-67
2022/10/03 07:05:35;;;;;;;19.20;14.02;;;;;;;;;;4992403;28;20050;-67
2022/10/03 07:08:27;;;;;;;21.35;14.07;;;;;;;;;;5002246;28;20054;-68
2022/10/03 07:11:25;;;;;;;21.48;13.30;;;;;;;;;;4994323;28;20058;-68
2022/10/03 07:14:14;;;;;;;19.13;12.98;;;;;;;;;;4988374;28;20060;-67
2022/10/03 07:17:00;;;;;;;20.60;12.90;;;;;;;;;;5002002;28;20073;-67
2022/10/03 07:19:42;;;;;;;21.75;13.70;;;;;;;;;;5009358;28;20587;-68
2022/10/03 07:22:16;;;;;;;16.42;12.85;;;;;;;;;;5009834;28;20054;-68
2022/10/03 07:25:04;;;;;;;18.92;14.13;;;;;;;;;;5012874;28;20046;-68
2022/10/03 07:27:40;;;;;;;19.20;13.27;;;;;;;;;;5011123;28;20042;-67
2022/10/03 07:30:16;;;;;;;18.58;13.93;;;;;;;;;;5014034;28;20037;-67
2022/10/03 07:33:05;;;;;;;19.33;14.05;;;;;;;;;;4993479;28;20050;-67
2022/10/03 07:39:37;;;;;;;20.48;13.88;;;;;;;;;;4984763;28;20050;-66
2022/10/03 07:42:06;;;;;;;21.27;14.07;;;;;;;;;;4993611;28;20050;-67
2022/10/03 07:44:50;;;;;;;21.90;13.88;;;;;;;;;;4999323;28;20061;-66
2022/10/03 07:47:48;;;;;;;21.63;14.32;;;;;;;;;;4974893;28;20096;-66
2022/10/03 07:50:25;;;;;;;23.08;14.52;;;;;;;;;;4991944;28;20090;-66
2022/10/03 07:52:59;;;;;;;20.13;12.93;;;;;;;;;;4974204;28;20054;-66
2022/10/03 07:55:46;;;;;;;21.75;13.95;;;;;;;;;;4992462;28;20137;-66
2022/10/03 07:58:25;;;;;;;20.95;12.60;;;;;;;;;;4991735;28;20109;-66
2022/10/03 08:01:10;;;;;;;17.85;12.73;;;;;;;;;;4991960;28;20054;-66
2022/10/03 08:04:01;;;;;;;19.15;12.45;;;;;;;;;;4991473;28;20137;-66
2022/10/03 08:07:02;;;;;;;18.55;12.60;;;;;;;;;;4980682;28;20038;-66
2022/10/03 08:09:43;;;;;;;18.63;13.05;;;;;;;;;;4960472;28;20124;-65
2022/10/03 08:12:35;;;;;;;19.20;12.35;;;;;;;;;;4978288;28;20166;-65
2022/10/03 08:15:10;;;;;;;22.08;13.50;;;;;;;;;;4981589;28;20093;-66
2022/10/03 08:17:59;;;;;;;20.00;13.02;;;;;;;;;;4979629;28;20133;-65
2022/10/03 08:20:46;;;;;;;18.13;12.32;;;;;;;;;;4982402;28;20050;-65
2022/10/03 08:23:18;;;;;;;19.20;11.30;;;;;;;;;;4961974;28;20047;-66
2022/10/03 08:26:03;;;;;;;16.17;11.18;;;;;;;;;;4980067;28;20711;-67
2022/10/03 08:29:02;;;;;;;17.13;11.98;;;;;;;;;;4951696;28;20050;-67
2022/10/03 08:31:31;;;;;;;16.33;10.73;;;;;;;;;;4924613;28;20800;-68
2022/10/03 08:34:36;;;;;;;18.10;10.75;;;;;;;;;;4978209;28;20058;-67
2022/10/03 08:37:13;;;;;;;17.20;10.27;;;;;;;;;;4978901;28;20141;-66
2022/10/03 08:39:59;;;;;;;15.55;10.27;;;;;;;;;;4960422;28;20142;-65
2022/10/03 08:42:48;;;;;;;18.17;10.90;;;;;;;;;;4962724;28;20054;-66
2022/10/03 08:45:26;;;;;;;15.95;8.70;;;;;;;;;;4975233;28;20533;-66
2022/10/03 08:48:35;;;;;;;10.93;8.82;;;;;;;;;;4978921;28;20158;-65
2022/10/03 08:51:10;;;;;;;15.68;8.85;;;;;;;;;;4962528;28;20153;-66
2022/10/03 08:54:01;;;;;;;11.70;7.78;;;;;;;;;;4981161;28;20051;-66
2022/10/03 08:56:46;;;;;;;12.88;7.00;;;;;;;;;;4983611;28;20078;-66
2022/10/03 08:59:41;;;;;;;9.95;6.95;;;;;;;;;;4980250;28;20082;-65
2022/10/03 09:02:32;;;;;;;12.48;7.40;;;;;;;;;;4982560;28;20421;-72
2022/10/03 09:05:24;;;;;;;13.02;6.72;;;;;;;;;;4984238;28;20504;-71
2022/10/03 09:07:59;;;;;;;12.10;7.50;;;;;;;;;;4979472;28;20094;-73
2022/10/03 09:10:32;;;;;;;10.80;7.03;;;;;;;;;;4980335;28;20047;-70
2022/10/03 09:13:26;;;;;;;14.00;7.23;;;;;;;;;;4981365;28;20067;-72
2022/10/03 09:16:22;;;;;;;13.48;7.38;;;;;;;;;;4985216;28;20054;-73
2022/10/03 09:19:11;;;;;;;9.35;6.15;;;;;;;;;;4979635;28;20046;-67
2022/10/03 09:21:44;;;;;;;9.05;5.70;;;;;;;;;;4984990;28;20510;-72
2022/10/03 09:24:23;;;;;;;10.35;6.97;;;;;;;;;;4981553;28;20093;-73
2022/10/03 09:27:20;;;;;;;12.85;7.22;;;;;;;;;;4979461;28;20054;-67
2022/10/03 09:30:02;;;;;;;11.80;6.88;;;;;;;;;;4983074;28;20089;-70
2022/10/03 09:32:29;;;;;;;11.85;6.82;;;;;;;;;;4981557;28;20062;-67
2022/10/03 09:35:22;;;;;;;14.98;7.43;;;;;;;;;;4987997;28;20050;-71
2022/10/03 09:38:30;;;;;;;14.75;7.95;;;;;;;;;;4970712;28;20051;-70
2022/10/03 09:41:03;;;;;;;14.38;7.35;;;;;;;;;;4971851;28;20054;-70
2022/10/03 09:43:48;;;;;;;14.93;7.20;;;;;;;;;;4980236;28;20050;-69
2022/10/03 09:46:42;;;;;;;14.88;7.22;;;;;;;;;;4984893;28;20406;-72
2022/10/03 09:49:40;;;;;;;15.00;7.85;;;;;;;;;;4984699;28;20129;-71
2022/10/03 09:52:13;;;;;;;11.32;5.28;;;;;;;;;;4983267;28;20046;-70
2022/10/03 09:55:00;;;;;;;10.85;5.80;;;;;;;;;;4981458;28;20054;-72
2022/10/03 09:57:46;;;;;;;15.35;5.45;;;;;;;;;;4983446;28;20113;-70
2022/10/03 10:00:26;;;;;;;10.70;5.45;;;;;;;;;;4981388;28;20125;-72
2022/10/03 10:03:10;;;;;;;9.68;5.78;;;;;;;;;;4982078;28;20131;-66
2022/10/03 10:05:56;;;;;;;7.88;6.00;;;;;;;;;;4982937;28;20047;-64
2022/10/03 10:08:31;;;;;;;15.85;8.32;;;;;;;;;;4982213;28;20047;-65
2022/10/03 10:11:32;;;;;;;16.42;6.43;;;;;;;;;;4980729;28;20054;-66
2022/10/03 10:14:24;;;;;;;10.75;5.63;;;;;;;;;;4982519;28;20061;-66
2022/10/03 10:17:22;;;;;;;12.70;4.95;;;;;;;;;;4979415;28;20493;-66
2022/10/03 10:19:53;;;;;;;11.88;4.55;;;;;;;;;;4979961;28;20047;-66
2022/10/03 10:22:51;;;;;;;9.45;4.57;;;;;;;;;;4982414;28;20139;-65
2022/10/03 10:25:31;;;;;;;12.70;5.88;;;;;;;;;;4983094;28;20074;-65
2022/10/03 10:28:21;;;;;;;11.07;5.43;;;;;;;;;;4981473;28;20077;-63
2022/10/03 10:31:16;;;;;;;8.98;5.13;;;;;;;;;;4980751;28;20050;-64
2022/10/03 10:33:48;;;;;;;15.00;5.80;;;;;;;;;;4981565;28;20050;-63
2022/10/03 10:36:39;;;;;;;14.90;6.43;;;;;;;;;;4979396;28;20085;-68
2022/10/03 10:39:28;;;;;;;8.52;4.93;;;;;;;;;;4978220;28;20051;-68
2022/10/03 10:42:16;;;;;;;12.60;5.65;;;;;;;;;;4978745;28;20087;-68
2022/10/03 10:44:48;;;;;;;9.05;5.30;;;;;;;;;;4978021;28;20498;-67
2022/10/03 10:47:40;;;;;;;18.92;5.03;;;;;;;;;;4979787;28;20081;-67
2022/10/03 10:50:25;;;;;;;9.75;4.88;;;;;;;;;;4976735;28;20093;-67
2022/10/03 10:52:57;;;;;;;9.63;4.30;;;;;;;;;;4980021;28;20077;-68
2022/10/03 10:55:42;;;;;;;11.25;4.97;;;;;;;;;;4979666;28;20097;-74
2022/10/03 10:58:49;;;;;;;10.02;4.20;;;;;;;;;;4982118;28;20137;-71
2022/10/03 11:01:31;;;;;;;9.93;4.45;;;;;;;;;;4982294;28;20453;-71
2022/10/03 11:04:21;;;;;;;10.27;4.88;;;;;;;;;;4985346;28;20054;-71
2022/10/03 11:07:32;;;;;;;10.70;4.90;;;;;;;;;;4984843;28;20056;-71
2022/10/03 11:10:21;;;;;;;11.65;4.90;;;;;;;;;;4978986;28;20051;-72
2022/10/03 11:13:09;;;;;;;10.85;4.47;;;;;;;;;;4981744;28;20494;-70
2022/10/03 11:16:13;;;;;;;11.82;5.07;;;;;;;;;;4981665;28;20129;-70
2022/10/03 11:19:30;;;;;;;11.18;4.57;;;;;;;;;;4978427;28;20074;-69
2022/10/03 11:22:35;;;;;;;7.45;4.53;;;;;;;;;;4923066;29;20060;-70
2022/10/03 11:25:45;;;;;;;14.43;4.70;;;;;;;;;;4920874;29;20146;-71
2022/10/03 11:28:42;;;;;;;9.05;4.10;;;;;;;;;;4896401;28;20055;-72
2022/10/03 11:31:30;;;;;;;7.80;3.70;;;;;;;;;;4977938;28;20120;-74
2022/10/03 11:34:14;;;;;;;8.35;3.80;;;;;;;;;;4979338;28;20491;-72
2022/10/03 11:37:12;;;;;;;9.55;3.40;;;;;;;;;;5098871;27;20385;-68
2022/10/03 11:39:55;;;;;;;7.45;2.97;;;;;;;;;;5074877;28;20080;-64
2022/10/03 11:42:59;;;;;;;7.60;3.05;;;;;;;;;;5076361;28;20255;-65
2022/10/03 11:45:32;;;;;;;7.82;3.42;;;;;;;;;;5054854;28;20048;-65
2022/10/03 11:48:17;;;;;;;8.68;3.47;;;;;;;;;;5069080;28;20420;-65
2022/10/03 11:50:50;;;;;;;5.47;2.80;;;;;;;;;;5053518;28;20204;-65
2022/10/03 11:53:22;;;;;;;7.70;2.65;;;;;;;;;;5051264;28;20103;-65
2022/10/03 11:56:08;;;;;;;5.68;2.80;;;;;;;;;;5056278;28;20073;-66
2022/10/03 11:58:53;;;;;;;7.55;3.03;;;;;;;;;;5053408;28;20123;-64
2022/10/03 12:01:42;;;;;;;4.82;2.83;;;;;;;;;;5052401;28;20111;-65
2022/10/03 12:04:27;;;;;;;7.55;2.67;;;;;;;;;;5052101;28;20087;-65
2022/10/03 12:10:15;;;;;;;6.05;2.58;;;;;;;;;;5055849;28;20080;-65
2022/10/03 12:12:47;;;;;;;5.57;2.83;;;;;;;;;;5049638;28;20749;-63
2022/10/03 12:15:23;;;;;;;8.38;2.83;;;;;;;;;;5061669;28;20077;-62
2022/10/03 12:18:12;;;;;;;9.15;2.05;;;;;;;;;;5054029;28;20143;-63
2022/10/03 12:21:13;;;;;;;3.47;1.70;;;;;;;;;;5063676;28;20076;-65
2022/10/03 12:24:01;;;;;;;5.60;2.22;;;;;;;;;;5052963;28;20095;-65
2022/10/03 12:26:36;;;;;;;3.90;2.28;;;;;;;;;;5054522;28;20154;-65
2022/10/03 12:29:04;;;;;;;7.18;2.45;;;;;;;;;;5066377;28;20431;-64
2022/10/03 12:31:34;;;;;;;5.75;2.40;;;;;;;;;;5056063;28;20470;-65
2022/10/03 12:34:23;;;;;;;7.63;1.98;;;;;;;;;;5069847;28;20099;-66
2022/10/03 12:37:16;;;;;;;3.60;2.20;;;;;;;;;;5054687;28;20084;-65
2022/10/03 12:40:00;;;;;;;7.93;2.92;;;;;;;;;;5058321;28;20053;-65
2022/10/03 12:42:29;;;;;;;5.22;1.58;;;;;;;;;;5056578;28;20051;-66
2022/10/03 12:45:08;;;;;;;5.93;2.00;;;;;;;;;;5051457;28;20103;-66
2022/10/03 12:48:12;;;;;;;6.85;2.13;;;;;;;;;;5059733;28;20120;-65
2022/10/03 12:51:07;;;;;;;6.28;1.83;;;;;;;;;;5010618;28;20512;-66
2022/10/03 12:53:43;;;;;;;2.58;1.40;;;;;;;;;;5036512;28;20042;-65
2022/10/03 12:56:29;;;;;;;5.00;2.22;;;;;;;;;;5037391;28;20085;-65
2022/10/03 12:59:45;;;;;;;5.43;2.25;;;;;;;;;;5040186;28;20715;-65
2022/10/03 13:02:29;;;;;;;4.80;1.90;;;;;;;;;;5037493;28;20152;-65
2022/10/03 13:05:17;;;;;;;7.18;1.90;;;;;;;;;;5036711;28;20063;-65
2022/10/03 13:07:51;;;;;;;10.57;2.20;;;;;;;;;;5040601;28;20513;-66
2022/10/03 13:10:41;;;;;;;4.40;2.03;;;;;;;;;;5043485;28;20049;-65
2022/10/03 13:13:19;;;;;;;5.18;1.38;;;;;;;;;;5064711;28;20030;-65
2022/10/03 13:16:10;;;;;;;3.15;1.45;;;;;;;;;;5040277;28;20552;-66
2022/10/03 13:19:06;;;;;;;6.28;1.80;;;;;;;;;;5046149;28;20136;-66
2022/10/03 13:21:37;;;;;;;8.40;1.70;;;;;;;;;;5036582;28;20104;-64
2022/10/03 13:24:31;;;;;;;6.95;1.73;;;;;;;;;;5036533;28;20053;-63
2022/10/03 13:27:33;;;;;;;3.97;1.48;;;;;;;;;;5042105;28;20051;-64
2022/10/03 13:30:15;;;;;;;6.28;1.75;;;;;;;;;;5031067;28;20093;-63
2022/10/03 13:32:44;;;;;;;4.18;1.50;;;;;;;;;;5045002;28;20094;-65
2022/10/03 13:35:57;;;;;;;5.72;1.73;;;;;;;;;;5053963;28;20049;-64
2022/10/03 13:38:39;;;;;;;5.10;1.52;;;;;;;;;;5050751;28;20419;-66
2022/10/03 13:41:26;;;;;;;4.97;1.77;;;;;;;;;;5041230;28;20045;-66
2022/10/03 13:44:09;;;;;;;5.40;1.67;;;;;;;;;;5038248;28;20128;-65
2022/10/03 13:46:52;;;;;;;5.55;1.58;;;;;;;;;;5055528;28;20091;-69
2022/10/03 13:49:24;;;;;;;5.38;1.88;;;;;;;;;;5043349;28;20105;-70
2022/10/03 13:52:01;;;;;;;5.93;2.43;;;;;;;;;;5050177;28;20085;-71
2022/10/03 13:54:46;;;;;;;7.13;2.40;;;;;;;;;;5042850;28;20083;-72
2022/10/03 13:57:20;;;;;;;5.28;1.63;;;;;;;;;;5037149;28;20520;-70
2022/10/03 13:59:50;;;;;;;5.38;1.35;;;;;;;;;;5042013;28;20045;-70
2022/10/03 14:02:35;;;;;;;5.22;2.00;;;;;;;;;;5041099;28;20059;-70
2022/10/03 14:05:39;;;;;;;7.72;1.85;;;;;;;;;;5041926;28;20110;-68
2022/10/03 14:08:09;;;;;;;4.82;1.50;;;;;;;;;;5053610;28;20543;-69
2022/10/03 14:11:06;;;;;;;5.35;2.08;;;;;;;;;;5044601;28;20060;-68
2022/10/03 14:13:45;;;;;;;3.92;2.00;;;;;;;;;;5044019;28;20124;-73
2022/10/03 14:16:27;;;;;;;4.00;1.60;;;;;;;;;;5043946;28;20412;-72
2022/10/03 14:19:12;;;;;;;2.70;1.42;;;;;;;;;;5052946;28;20040;-68
2022/10/03 14:21:54;;;;;;;4.88;1.80;;;;;;;;;;5040275;28;20091;-67
2022/10/03 14:24:57;;;;;;;9.02;1.90;;;;;;;;;;5041068;28;20053;-67
2022/10/03 14:27:26;;;;;;;3.40;1.80;;;;;;;;;;5038649;28;20068;-66
2022/10/03 14:30:19;;;;;;;6.75;2.03;;;;;;;;;;5039407;28;20061;-70
2022/10/03 14:33:09;;;;;;;5.38;1.85;;;;;;;;;;5043730;28;20049;-70
2022/10/03 14:35:51;;;;;;;4.93;1.88;;;;;;;;;;5044101;28;20045;-72
2022/10/03 14:41:27;;;;;;;5.88;2.08;;;;;;;;;;5039632;28;20049;-71
2022/10/03 14:44:04;;;;;;;4.00;1.60;;;;;;;;;;5037692;28;20045;-71
2022/10/03 14:46:51;;;;;;;4.88;1.42;;;;;;;;;;5039768;28;20041;-71
2022/10/03 14:49:22;;;;;;;4.45;1.70;;;;;;;;;;5039514;28;20053;-74
2022/10/03 14:52:26;;;;;;;5.93;1.77;;;;;;;;;;5036559;28;20084;-72
2022/10/03 14:55:21;;;;;;;4.47;1.60;;;;;;;;;;5046237;28;20465;-77
2022/10/03 14:58:05;;;;;;;4.90;1.58;;;;;;;;;;5055507;28;20134;-73
2022/10/03 15:00:42;;;;;;;4.63;1.70;;;;;;;;;;5053915;28;20061;-70
2022/10/03 15:03:32;;;;;;;3.67;1.50;;;;;;;;;;5042944;28;20338;-72
2022/10/03 15:06:09;;;;;;;6.82;1.77;;;;;;;;;;5045108;28;20099;-76
2022/10/03 15:08:45;;;;;;;3.90;1.98;;;;;;;;;;5057742;28;20420;-77
2022/10/03 15:11:12;;;;;;;4.95;1.75;;;;;;;;;;5040314;28;20103;-74
2022/10/03 15:13:49;;;;;;;6.85;2.38;;;;;;;;;;5054064;28;20048;-74
2022/10/03 15:16:18;;;;;;;4.18;1.65;;;;;;;;;;5039904;28;20140;-76
2022/10/03 15:18:55;;;;;;;3.95;1.67;;;;;;;;;;5039396;28;20049;-80
2022/10/03 15:21:22;;;;;;;3.83;2.08;;;;;;;;;;5054709;28;20056;-75
2022/10/03 15:23:55;;;;;;;5.47;2.22;;;;;;;;;;5054628;28;20049;-73
2022/10/03 15:26:23;;;;;;;4.78;1.85;;;;;;;;;;5052238;28;20057;-67
2022/10/03 15:28:52;;;;;;;6.18;2.33;;;;;;;;;;5052780;28;20057;-67
2022/10/03 15:31:41;;;;;;;6.88;2.38;;;;;;;;;;5036854;28;20076;-66
2022/10/03 15:34:31;;;;;;;4.68;1.88;;;;;;;;;;5037581;28;20178;-65
2022/10/03 15:37:17;;;;;;;8.18;2.58;;;;;;;;;;5037845;28;20045;-66
2022/10/03 15:39:44;;;;;;;5.90;2.10;;;;;;;;;;5038232;28;20080;-66
2022/10/03 15:42:18;;;;;;;7.85;2.70;;;;;;;;;;5038664;28;20049;-66
2022/10/03 15:44:54;;;;;;;4.65;2.10;;;;;;;;;;5039153;28;20053;-67
2022/10/03 15:47:22;;;;;;;5.13;2.08;;;;;;;;;;5051825;28;20137;-67
2022/10/03 15:49:53;;;;;;;4.53;1.70;;;;;;;;;;5054572;28;20073;-76
2022/10/03 15:52:22;;;;;;;6.00;2.53;;;;;;;;;;5035383;28;20085;-76
2022/10/03 15:55:01;;;;;;;4.22;2.60;;;;;;;;;;5055708;28;20073;-75
2022/10/03 15:57:45;;;;;;;6.65;1.70;;;;;;;;;;5047944;28;20045;-69
2022/10/03 16:00:38;;;;;;;2.80;1.88;;;;;;;;;;5050006;28;20053;-67
2022/10/03 16:03:16;;;;;;;8.68;2.33;;;;;;;;;;5033616;28;20646;-69
2022/10/03 16:06:02;;;;;;;5.78;2.00;;;;;;;;;;5036296;28;20397;-74
2022/10/03 16:08:31;;;;;;;5.95;2.13;;;;;;;;;;5056396;28;20103;-69
2022/10/03 16:11:23;;;;;;;6.03;2.35;;;;;;;;;;5038943;28;20551;-71
2022/10/03 16:14:15;;;;;;;3.80;2.30;;;;;;;;;;5035740;28;20102;-71
2022/10/03 16:16:54;;;;;;;3.80;2.00;;;;;;;;;;5034537;28;20100;-70
2022/10/03 16:19:21;;;;;;;6.55;2.60;;;;;;;;;;5042505;28;20148;-69
2022/10/03 16:22:01;;;;;;;6.47;2.88;;;;;;;;;;5039338;28;20156;-69
2022/10/03 16:24:50;;;;;;;5.75;2.88;;;;;;;;;;5043734;28;20530;-69
2022/10/03 16:27:24;;;;;;;4.47;2.22;;;;;;;;;;5055487;28;20084;-68